0°C Temp
-3°C Dewpoint
80% Humidity
Temperature
13 KM/H
8 MPH
7 KTS
120°
East South
East

Wind Speed
Clear
Conditions
Pressure 1014.92 (hPa) - 29.97 (in)
Visibility 6.2 (mi) - 10.0 (km)

Current Conditions
EHLW
Location Leeuwarden Air Base 6km (3.2mi)
Metar :EHLW 191555Z AUTO 12007KT 080V140 9999 NCD 00/M03 Q1015 BLU
Sat 19th January 16:55 pm

Airport
  Metar Aviation API Data Provided by https://www.checkwx.com/ PHP scripts by weather34.com ©2019